sensor_id;sensor_type;location;lat;lon;timestamp;pressure;altitude;pressure_sealevel;temperature;humidity
31483;BME280;18103;52.246;8.052;2023-04-07T00:01:29;100274.47;;;7.65;81.19
31483;BME280;18103;52.246;8.052;2023-04-07T00:03:56;100279.75;;;7.78;80.65
31483;BME280;18103;52.246;8.052;2023-04-07T00:06:24;100270.91;;;7.79;80.57
31483;BME280;18103;52.246;8.052;2023-04-07T00:08:53;100267.84;;;7.59;81.92
31483;BME280;18103;52.246;8.052;2023-04-07T00:11:21;100267.34;;;7.67;81.39
31483;BME280;18103;52.246;8.052;2023-04-07T00:13:46;100265.00;;;7.62;81.66
31483;BME280;18103;52.246;8.052;2023-04-07T00:16:11;100271.25;;;7.61;81.70
31483;BME280;18103;52.246;8.052;2023-04-07T00:18:40;100266.28;;;7.57;81.35
31483;BME280;18103;52.246;8.052;2023-04-07T00:21:05;100258.81;;;7.63;80.93
31483;BME280;18103;52.246;8.052;2023-04-07T00:23:31;100250.84;;;7.52;81.34
31483;BME280;18103;52.246;8.052;2023-04-07T00:25:56;100258.41;;;7.57;80.80
31483;BME280;18103;52.246;8.052;2023-04-07T00:28:21;100258.94;;;7.62;80.55
31483;BME280;18103;52.246;8.052;2023-04-07T00:30:49;100256.81;;;7.54;81.17
31483;BME280;18103;52.246;8.052;2023-04-07T00:33:14;100267.53;;;7.64;80.78
31483;BME280;18103;52.246;8.052;2023-04-07T00:35:42;100259.97;;;7.59;81.37
31483;BME280;18103;52.246;8.052;2023-04-07T00:38:08;100254.81;;;7.58;81.21
31483;BME280;18103;52.246;8.052;2023-04-07T00:40:33;100250.28;;;7.47;81.58
31483;BME280;18103;52.246;8.052;2023-04-07T00:43:01;100249.91;;;7.53;80.86
31483;BME280;18103;52.246;8.052;2023-04-07T00:45:26;100250.00;;;7.64;80.29
31483;BME280;18103;52.246;8.052;2023-04-07T00:47:52;100248.94;;;7.54;81.28
31483;BME280;18103;52.246;8.052;2023-04-07T00:50:17;100252.53;;;7.53;80.70
31483;BME280;18103;52.246;8.052;2023-04-07T00:52:45;100243.16;;;7.49;81.03
31483;BME280;18103;52.246;8.052;2023-04-07T00:55:12;100245.69;;;7.63;80.41
31483;BME280;18103;52.246;8.052;2023-04-07T00:57:43;100248.09;;;7.66;80.15
31483;BME280;18103;52.246;8.052;2023-04-07T01:00:11;100246.63;;;7.49;81.29
31483;BME280;18103;52.246;8.052;2023-04-07T01:05:30;100235.41;;;7.47;81.06
31483;BME280;18103;52.246;8.052;2023-04-07T01:10:49;100236.66;;;7.54;81.70
31483;BME280;18103;52.246;8.052;2023-04-07T01:13:34;100240.00;;;7.44;82.06
31483;BME280;18103;52.246;8.052;2023-04-07T01:16:08;100233.91;;;7.43;81.74
31483;BME280;18103;52.246;8.052;2023-04-07T01:18:36;100227.09;;;7.41;81.63
31483;BME280;18103;52.246;8.052;2023-04-07T01:21:08;100230.66;;;7.40;82.13
31483;BME280;18103;52.246;8.052;2023-04-07T01:26:18;100219.19;;;7.41;82.10
31483;BME280;18103;52.246;8.052;2023-04-07T01:29:10;100224.78;;;7.36;82.60
31483;BME280;18103;52.246;8.052;2023-04-07T01:31:39;100223.19;;;7.46;81.94
31483;BME280;18103;52.246;8.052;2023-04-07T01:34:10;100223.53;;;7.42;82.35
31483;BME280;18103;52.246;8.052;2023-04-07T01:36:40;100223.19;;;7.46;81.79
31483;BME280;18103;52.246;8.052;2023-04-07T01:39:12;100218.38;;;7.40;82.44
31483;BME280;18103;52.246;8.052;2023-04-07T01:41:38;100226.97;;;7.55;81.84
31483;BME280;18103;52.246;8.052;2023-04-07T01:44:06;100223.00;;;7.49;82.73
31483;BME280;18103;52.246;8.052;2023-04-07T01:46:33;100226.25;;;7.53;82.15
31483;BME280;18103;52.246;8.052;2023-04-07T01:49:01;100233.38;;;7.51;82.36
31483;BME280;18103;52.246;8.052;2023-04-07T01:51:33;100220.25;;;7.51;81.97
31483;BME280;18103;52.246;8.052;2023-04-07T01:54:03;100226.25;;;7.40;82.54
31483;BME280;18103;52.246;8.052;2023-04-07T01:56:28;100229.81;;;7.39;82.81
31483;BME280;18103;52.246;8.052;2023-04-07T01:58:56;100230.88;;;7.49;82.52
31483;BME280;18103;52.246;8.052;2023-04-07T02:01:21;100218.69;;;7.61;82.25
31483;BME280;18103;52.246;8.052;2023-04-07T02:04:11;100219.94;;;7.43;83.44
31483;BME280;18103;52.246;8.052;2023-04-07T02:06:53;100221.13;;;7.64;82.15
31483;BME280;18103;52.246;8.052;2023-04-07T02:09:20;100216.69;;;7.52;82.76
31483;BME280;18103;52.246;8.052;2023-04-07T02:11:47;100216.59;;;7.53;83.26
31483;BME280;18103;52.246;8.052;2023-04-07T02:14:18;100223.19;;;7.46;83.41
31483;BME280;18103;52.246;8.052;2023-04-07T02:16:47;100223.09;;;7.48;83.13
31483;BME280;18103;52.246;8.052;2023-04-07T02:19:13;100227.63;;;7.46;83.18
31483;BME280;18103;52.246;8.052;2023-04-07T02:21:41;100223.81;;;7.37;84.20
31483;BME280;18103;52.246;8.052;2023-04-07T02:24:12;100220.78;;;7.43;83.42
31483;BME280;18103;52.246;8.052;2023-04-07T02:26:41;100224.03;;;7.47;83.22
31483;BME280;18103;52.246;8.052;2023-04-07T02:29:09;100225.84;;;7.59;82.10
31483;BME280;18103;52.246;8.052;2023-04-07T02:31:34;100230.03;;;7.36;84.12
31483;BME280;18103;52.246;8.052;2023-04-07T02:34:04;100220.91;;;7.42;83.13
31483;BME280;18103;52.246;8.052;2023-04-07T02:36:30;100223.09;;;7.35;83.38
31483;BME280;18103;52.246;8.052;2023-04-07T02:38:56;100223.19;;;7.33;83.55
31483;BME280;18103;52.246;8.052;2023-04-07T02:41:23;100223.53;;;7.42;83.10
31483;BME280;18103;52.246;8.052;2023-04-07T02:43:49;100231.06;;;7.33;83.30
31483;BME280;18103;52.246;8.052;2023-04-07T02:46:17;100224.03;;;7.34;83.38
31483;BME280;18103;52.246;8.052;2023-04-07T02:48:45;100229.50;;;7.44;82.77
31483;BME280;18103;52.246;8.052;2023-04-07T02:51:11;100228.53;;;7.32;83.58
31483;BME280;18103;52.246;8.052;2023-04-07T02:53:36;100226.53;;;7.35;83.00
31483;BME280;18103;52.246;8.052;2023-04-07T02:56:01;100224.22;;;7.31;83.82
31483;BME280;18103;52.246;8.052;2023-04-07T02:58:29;100226.66;;;7.34;83.47
31483;BME280;18103;52.246;8.052;2023-04-07T03:00:55;100228.66;;;7.30;83.71
31483;BME280;18103;52.246;8.052;2023-04-07T03:03:20;100227.16;;;7.26;83.61
31483;BME280;18103;52.246;8.052;2023-04-07T03:05:45;100224.78;;;7.36;83.60
31483;BME280;18103;52.246;8.052;2023-04-07T03:08:11;100229.06;;;7.37;83.99
31483;BME280;18103;52.246;8.052;2023-04-07T03:10:36;100227.78;;;7.30;84.24
31483;BME280;18103;52.246;8.052;2023-04-07T03:13:01;100229.81;;;7.26;84.21
31483;BME280;18103;52.246;8.052;2023-04-07T03:15:27;100228.22;;;7.36;83.17
31483;BME280;18103;52.246;8.052;2023-04-07T03:17:54;100227.41;;;7.36;83.61
31483;BME280;18103;52.246;8.052;2023-04-07T03:20:22;100225.81;;;7.33;83.88
31483;BME280;18103;52.246;8.052;2023-04-07T03:22:48;100226.31;;;7.39;83.58
31483;BME280;18103;52.246;8.052;2023-04-07T03:25:13;100231.47;;;7.27;83.88
31483;BME280;18103;52.246;8.052;2023-04-07T03:27:38;100222.44;;;7.31;84.17
31483;BME280;18103;52.246;8.052;2023-04-07T03:30:04;100227.41;;;7.36;84.12
31483;BME280;18103;52.246;8.052;2023-04-07T03:32:32;100228.94;;;7.26;84.44
31483;BME280;18103;52.246;8.052;2023-04-07T03:34:58;100226.66;;;7.34;84.18
31483;BME280;18103;52.246;8.052;2023-04-07T03:37:26;100228.44;;;7.33;84.07
31483;BME280;18103;52.246;8.052;2023-04-07T03:39:53;100225.47;;;7.25;84.29
31483;BME280;18103;52.246;8.052;2023-04-07T03:42:21;100229.56;;;7.16;85.07
31483;BME280;18103;52.246;8.052;2023-04-07T03:44:49;100219.91;;;7.30;84.69
31483;BME280;18103;52.246;8.052;2023-04-07T03:47:16;100220.97;;;7.27;84.70
31483;BME280;18103;52.246;8.052;2023-04-07T03:49:42;100225.78;;;7.21;84.87
31483;BME280;18103;52.246;8.052;2023-04-07T03:52:07;100221.38;;;7.21;84.49
31483;BME280;18103;52.246;8.052;2023-04-07T03:54:33;100230.53;;;7.41;84.33
31483;BME280;18103;52.246;8.052;2023-04-07T03:56:59;100227.69;;;7.31;84.78
31483;BME280;18103;52.246;8.052;2023-04-07T03:59:25;100231.22;;;7.17;85.62
31483;BME280;18103;52.246;8.052;2023-04-07T04:01:51;100227.91;;;7.28;84.94
31483;BME280;18103;52.246;8.052;2023-04-07T04:04:16;100234.72;;;7.18;85.58
31483;BME280;18103;52.246;8.052;2023-04-07T04:06:44;100234.91;;;7.15;85.60
31483;BME280;18103;52.246;8.052;2023-04-07T04:09:12;100235.84;;;7.14;85.29
31483;BME280;18103;52.246;8.052;2023-04-07T04:11:40;100232.38;;;7.13;85.48
31483;BME280;18103;52.246;8.052;2023-04-07T04:14:08;100243.41;;;7.18;85.38
31483;BME280;18103;52.246;8.052;2023-04-07T04:16:34;100239.22;;;7.16;85.22
31483;BME280;18103;52.246;8.052;2023-04-07T04:19:04;100240.31;;;7.26;84.90
31483;BME280;18103;52.246;8.052;2023-04-07T04:21:29;100240.34;;;7.12;85.43
31483;BME280;18103;52.246;8.052;2023-04-07T04:23:57;100245.22;;;7.18;84.84
31483;BME280;18103;52.246;8.052;2023-04-07T04:26:22;100244.78;;;7.24;85.14
31483;BME280;18103;52.246;8.052;2023-04-07T04:28:50;100243.97;;;7.24;85.28
31483;BME280;18103;52.246;8.052;2023-04-07T04:31:18;100241.94;;;7.14;85.02
31483;BME280;18103;52.246;8.052;2023-04-07T04:33:45;100245.34;;;7.02;86.47
31483;BME280;18103;52.246;8.052;2023-04-07T04:36:13;100247.97;;;7.02;85.92
31483;BME280;18103;52.246;8.052;2023-04-07T04:38:39;100256.38;;;6.94;87.06
31483;BME280;18103;52.246;8.052;2023-04-07T04:41:06;100250.00;;;6.84;87.41
31483;BME280;18103;52.246;8.052;2023-04-07T04:43:31;100253.47;;;7.12;85.72
31483;BME280;18103;52.246;8.052;2023-04-07T04:45:57;100259.03;;;7.07;86.26
31483;BME280;18103;52.246;8.052;2023-04-07T04:48:23;100256.72;;;7.02;86.81
31483;BME280;18103;52.246;8.052;2023-04-07T04:50:48;100256.50;;;7.06;86.50
31483;BME280;18103;52.246;8.052;2023-04-07T04:53:13;100267.00;;;7.06;86.58
31483;BME280;18103;52.246;8.052;2023-04-07T04:55:41;100256.50;;;7.06;86.51
31483;BME280;18103;52.246;8.052;2023-04-07T04:58:14;100264.38;;;7.06;86.49
31483;BME280;18103;52.246;8.052;2023-04-07T05:00:40;100259.97;;;7.06;86.40
31483;BME280;18103;52.246;8.052;2023-04-07T05:03:05;100262.91;;;7.01;86.92
31483;BME280;18103;52.246;8.052;2023-04-07T05:05:31;100261.09;;;7.02;87.04
31483;BME280;18103;52.246;8.052;2023-04-07T05:07:58;100262.69;;;7.05;87.29
31483;BME280;18103;52.246;8.052;2023-04-07T05:10:24;100276.56;;;7.07;86.94
31483;BME280;18103;52.246;8.052;2023-04-07T05:12:49;100270.19;;;7.11;86.50
31483;BME280;18103;52.246;8.052;2023-04-07T05:15:15;100277.19;;;7.10;86.70
31483;BME280;18103;52.246;8.052;2023-04-07T05:17:43;100274.34;;;7.00;86.95
31483;BME280;18103;52.246;8.052;2023-04-07T05:20:17;100276.38;;;7.10;86.29
31483;BME280;18103;52.246;8.052;2023-04-07T05:22:47;100271.66;;;7.15;86.57
31483;BME280;18103;52.246;8.052;2023-04-07T05:25:12;100274.56;;;7.10;86.63
31483;BME280;18103;52.246;8.052;2023-04-07T05:27:40;100274.56;;;7.10;86.85
31483;BME280;18103;52.246;8.052;2023-04-07T05:30:06;100281.44;;;7.26;85.56
31483;BME280;18103;52.246;8.052;2023-04-07T05:32:32;100276.06;;;7.14;86.35
31483;BME280;18103;52.246;8.052;2023-04-07T05:34:59;100283.69;;;7.05;87.20
31483;BME280;18103;52.246;8.052;2023-04-07T05:37:25;100278.34;;;7.06;86.94
31483;BME280;18103;52.246;8.052;2023-04-07T05:39:53;100284.72;;;7.02;87.19
31483;BME280;18103;52.246;8.052;2023-04-07T05:42:18;100287.91;;;7.07;87.06
31483;BME280;18103;52.246;8.052;2023-04-07T05:44:48;100284.81;;;7.28;86.36
31483;BME280;18103;52.246;8.052;2023-04-07T05:47:14;100282.91;;;7.17;86.58
31483;BME280;18103;52.246;8.052;2023-04-07T05:49:39;100291.59;;;7.17;86.77
31483;BME280;18103;52.246;8.052;2023-04-07T05:52:13;100293.50;;;7.15;86.58
31483;BME280;18103;52.246;8.052;2023-04-07T05:54:40;100292.25;;;7.21;86.43
31483;BME280;18103;52.246;8.052;2023-04-07T05:57:06;100291.72;;;7.16;86.90
31483;BME280;18103;52.246;8.052;2023-04-07T05:59:33;100293.94;;;7.22;86.78
31483;BME280;18103;52.246;8.052;2023-04-07T06:01:58;100297.19;;;7.26;87.16
31483;BME280;18103;52.246;8.052;2023-04-07T06:04:27;100301.19;;;7.31;87.08
31483;BME280;18103;52.246;8.052;2023-04-07T06:06:52;100299.47;;;7.17;87.73
31483;BME280;18103;52.246;8.052;2023-04-07T06:09:21;100297.84;;;7.02;88.19
31483;BME280;18103;52.246;8.052;2023-04-07T06:11:47;100307.81;;;7.24;87.04
31483;BME280;18103;52.246;8.052;2023-04-07T06:14:12;100309.03;;;7.18;88.03
31483;BME280;18103;52.246;8.052;2023-04-07T06:16:38;100311.28;;;7.25;87.71
31483;BME280;18103;52.246;8.052;2023-04-07T06:19:03;100305.72;;;7.29;87.63
31483;BME280;18103;52.246;8.052;2023-04-07T06:21:29;100311.09;;;7.28;88.22
31483;BME280;18103;52.246;8.052;2023-04-07T06:23:55;100310.56;;;7.35;87.59
31483;BME280;18103;52.246;8.052;2023-04-07T06:26:21;100314.56;;;7.41;87.82
31483;BME280;18103;52.246;8.052;2023-04-07T06:28:48;100312.47;;;7.33;87.84
31483;BME280;18103;52.246;8.052;2023-04-07T06:31:16;100311.84;;;7.43;86.93
31483;BME280;18103;52.246;8.052;2023-04-07T06:33:45;100313.44;;;7.45;87.39
31483;BME280;18103;52.246;8.052;2023-04-07T06:36:10;100322.50;;;7.27;88.13
31483;BME280;18103;52.246;8.052;2023-04-07T06:38:37;100325.94;;;7.42;87.43
31483;BME280;18103;52.246;8.052;2023-04-07T06:41:02;100323.44;;;7.53;86.96
31483;BME280;18103;52.246;8.052;2023-04-07T06:43:29;100332.59;;;7.60;86.55
31483;BME280;18103;52.246;8.052;2023-04-07T06:45:56;100332.91;;;7.56;87.13
31483;BME280;18103;52.246;8.052;2023-04-07T06:48:22;100340.63;;;7.44;86.85
31483;BME280;18103;52.246;8.052;2023-04-07T06:50:50;100345.03;;;7.44;86.86
31483;BME280;18103;52.246;8.052;2023-04-07T06:53:18;100347.28;;;7.50;87.48
31483;BME280;18103;52.246;8.052;2023-04-07T06:55:43;100346.94;;;7.42;87.05
31483;BME280;18103;52.246;8.052;2023-04-07T06:58:09;100359.63;;;7.35;87.61
31483;BME280;18103;52.246;8.052;2023-04-07T07:00:35;100351.78;;;7.48;87.24
31483;BME280;18103;52.246;8.052;2023-04-07T07:03:01;100353.28;;;7.65;86.69
31483;BME280;18103;52.246;8.052;2023-04-07T07:05:29;100347.56;;;7.45;87.15
31483;BME280;18103;52.246;8.052;2023-04-07T07:07:55;100365.03;;;7.59;87.24
31483;BME280;18103;52.246;8.052;2023-04-07T07:10:20;100361.25;;;7.50;87.32
31483;BME280;18103;52.246;8.052;2023-04-07T07:12:49;100353.19;;;7.66;87.07
31483;BME280;18103;52.246;8.052;2023-04-07T07:15:17;100358.34;;;7.68;87.03
31483;BME280;18103;52.246;8.052;2023-04-07T07:17:43;100361.38;;;7.62;87.15
31483;BME280;18103;52.246;8.052;2023-04-07T07:20:08;100357.50;;;7.67;86.41
31483;BME280;18103;52.246;8.052;2023-04-07T07:22:34;100365.06;;;7.72;86.19
31483;BME280;18103;52.246;8.052;2023-04-07T07:25:02;100359.94;;;7.70;86.97
31483;BME280;18103;52.246;8.052;2023-04-07T07:27:30;100372.84;;;7.74;86.56
31483;BME280;18103;52.246;8.052;2023-04-07T07:29:56;100370.66;;;7.80;86.79
31483;BME280;18103;52.246;8.052;2023-04-07T07:32:24;100375.22;;;7.91;86.66
31483;BME280;18103;52.246;8.052;2023-04-07T07:34:49;100382.63;;;7.71;86.57
31483;BME280;18103;52.246;8.052;2023-04-07T07:37:14;100387.41;;;7.79;86.48
31483;BME280;18103;52.246;8.052;2023-04-07T07:39:40;100383.34;;;7.74;86.88
31483;BME280;18103;52.246;8.052;2023-04-07T07:42:08;100380.25;;;7.94;86.85
31483;BME280;18103;52.246;8.052;2023-04-07T07:44:33;100383.19;;;7.90;86.27
31483;BME280;18103;52.246;8.052;2023-04-07T07:47:01;100390.38;;;8.00;85.95
31483;BME280;18103;52.246;8.052;2023-04-07T07:49:26;100395.63;;;8.00;85.71
31483;BME280;18103;52.246;8.052;2023-04-07T07:51:52;100393.41;;;8.07;85.74
31483;BME280;18103;52.246;8.052;2023-04-07T07:54:17;100393.41;;;8.07;85.98
31483;BME280;18103;52.246;8.052;2023-04-07T07:56:43;100399.81;;;7.90;86.01
31483;BME280;18103;52.246;8.052;2023-04-07T07:59:08;100401.06;;;7.84;86.05
31483;BME280;18103;52.246;8.052;2023-04-07T08:01:34;100399.81;;;8.03;85.24
31483;BME280;18103;52.246;8.052;2023-04-07T08:03:59;100407.22;;;8.11;86.27
31483;BME280;18103;52.246;8.052;2023-04-07T08:06:25;100413.94;;;8.15;85.51
31483;BME280;18103;52.246;8.052;2023-04-07T08:08:51;100417.28;;;8.17;85.95
31483;BME280;18103;52.246;8.052;2023-04-07T08:11:19;100417.72;;;8.23;84.94
31483;BME280;18103;52.246;8.052;2023-04-07T08:13:45;100418.97;;;8.05;85.96
31483;BME280;18103;52.246;8.052;2023-04-07T08:16:16;100428.13;;;7.99;85.17
31483;BME280;18103;52.246;8.052;2023-04-07T08:18:41;100413.41;;;8.10;85.07
31483;BME280;18103;52.246;8.052;2023-04-07T08:21:07;100416.44;;;8.03;84.63
31483;BME280;18103;52.246;8.052;2023-04-07T08:23:32;100418.66;;;8.10;84.51
31483;BME280;18103;52.246;8.052;2023-04-07T08:26:00;100418.47;;;8.26;84.33
31483;BME280;18103;52.246;8.052;2023-04-07T08:28:25;100426.69;;;8.34;84.10
31483;BME280;18103;52.246;8.052;2023-04-07T08:30:51;100425.41;;;8.27;85.03
31483;BME280;18103;52.246;8.052;2023-04-07T08:33:18;100427.53;;;8.34;84.29
31483;BME280;18103;52.246;8.052;2023-04-07T08:35:44;100421.22;;;8.37;83.94
31483;BME280;18103;52.246;8.052;2023-04-07T08:38:12;100432.13;;;8.31;83.84
31483;BME280;18103;52.246;8.052;2023-04-07T08:40:37;100441.53;;;8.48;83.64
31483;BME280;18103;52.246;8.052;2023-04-07T08:43:07;100437.69;;;8.53;82.96
31483;BME280;18103;52.246;8.052;2023-04-07T08:45:37;100439.88;;;8.60;81.79
31483;BME280;18103;52.246;8.052;2023-04-07T08:48:10;100443.34;;;8.47;81.80
31483;BME280;18103;52.246;8.052;2023-04-07T08:50:43;100446.28;;;8.55;82.91
31483;BME280;18103;52.246;8.052;2023-04-07T08:53:11;100445.03;;;8.48;81.87
31483;BME280;18103;52.246;8.052;2023-04-07T08:55:43;100446.63;;;8.51;81.64
31483;BME280;18103;52.246;8.052;2023-04-07T08:58:12;100446.09;;;8.46;80.79
31483;BME280;18103;52.246;8.052;2023-04-07T09:00:44;100449.66;;;8.57;80.38
31483;BME280;18103;52.246;8.052;2023-04-07T09:03:10;100449.34;;;8.75;80.24
31483;BME280;18103;52.246;8.052;2023-04-07T09:05:37;100454.72;;;8.73;80.33
31483;BME280;18103;52.246;8.052;2023-04-07T09:08:03;100456.09;;;8.79;80.76
31483;BME280;18103;52.246;8.052;2023-04-07T09:10:29;100457.00;;;8.91;80.15
31483;BME280;18103;52.246;8.052;2023-04-07T09:12:57;100459.34;;;8.96;80.10
31483;BME280;18103;52.246;8.052;2023-04-07T09:15:22;100460.69;;;9.01;79.53
31483;BME280;18103;52.246;8.052;2023-04-07T09:17:50;100460.50;;;8.92;79.78
31483;BME280;18103;52.246;8.052;2023-04-07T09:20:16;100461.63;;;9.00;79.66
31483;BME280;18103;52.246;8.052;2023-04-07T09:22:43;100463.84;;;8.94;79.35
31483;BME280;18103;52.246;8.052;2023-04-07T09:25:23;100471.72;;;9.06;79.74
31483;BME280;18103;52.246;8.052;2023-04-07T09:30:27;100461.81;;;9.23;78.59
31483;BME280;18103;52.246;8.052;2023-04-07T09:32:53;100468.22;;;9.19;78.44
31483;BME280;18103;52.246;8.052;2023-04-07T09:35:18;100456.00;;;9.31;78.87
31483;BME280;18103;52.246;8.052;2023-04-07T09:38:01;100456.91;;;9.42;77.93
31483;BME280;18103;52.246;8.052;2023-04-07T09:40:32;100467.72;;;9.51;77.41
31483;BME280;18103;52.246;8.052;2023-04-07T09:42:58;100458.59;;;9.44;76.51
31483;BME280;18103;52.246;8.052;2023-04-07T09:45:27;100468.78;;;9.48;76.14
31483;BME280;18103;52.246;8.052;2023-04-07T09:47:58;100466.19;;;9.35;75.38
31483;BME280;18103;52.246;8.052;2023-04-07T09:50:34;100462.72;;;9.35;75.68
31483;BME280;18103;52.246;8.052;2023-04-07T09:53:01;100469.25;;;9.42;76.31
31483;BME280;18103;52.246;8.052;2023-04-07T09:55:29;100467.72;;;9.51;75.53
31483;BME280;18103;52.246;8.052;2023-04-07T09:57:58;100468.03;;;9.59;75.70
31483;BME280;18103;52.246;8.052;2023-04-07T10:00:24;100476.41;;;9.40;75.86
31483;BME280;18103;52.246;8.052;2023-04-07T10:02:49;100466.94;;;9.37;75.47
31483;BME280;18103;52.246;8.052;2023-04-07T10:05:16;100476.13;;;9.32;75.94
31483;BME280;18103;52.246;8.052;2023-04-07T10:07:47;100470.06;;;9.42;74.95
31483;BME280;18103;52.246;8.052;2023-04-07T10:10:13;100465.84;;;9.40;75.95
31483;BME280;18103;52.246;8.052;2023-04-07T10:12:39;100477.34;;;9.52;74.84
31483;BME280;18103;52.246;8.052;2023-04-07T10:15:06;100473.06;;;9.62;74.55
31483;BME280;18103;52.246;8.052;2023-04-07T10:17:38;100475.94;;;9.59;74.76
31483;BME280;18103;52.246;8.052;2023-04-07T10:20:08;100470.00;;;9.68;73.80
31483;BME280;18103;52.246;8.052;2023-04-07T10:22:35;100476.56;;;9.63;74.27
31483;BME280;18103;52.246;8.052;2023-04-07T10:25:09;100478.25;;;9.88;74.47
31483;BME280;18103;52.246;8.052;2023-04-07T10:27:47;100488.28;;;9.83;73.45
31483;BME280;18103;52.246;8.052;2023-04-07T10:30:25;100489.56;;;9.77;72.20
31483;BME280;18103;52.246;8.052;2023-04-07T10:32:52;100487.16;;;9.74;72.01
31483;BME280;18103;52.246;8.052;2023-04-07T10:35:17;100493.16;;;9.76;72.04
31483;BME280;18103;52.246;8.052;2023-04-07T10:40:41;100489.69;;;9.75;71.04
31483;BME280;18103;52.246;8.052;2023-04-07T10:43:07;100488.84;;;9.99;71.11
31483;BME280;18103;52.246;8.052;2023-04-07T10:48:15;100488.13;;;10.33;70.57
31483;BME280;18103;52.246;8.052;2023-04-07T10:50:40;100498.25;;;10.39;70.26
31483;BME280;18103;52.246;8.052;2023-04-07T10:53:17;100495.41;;;10.29;70.05
31483;BME280;18103;52.246;8.052;2023-04-07T10:55:43;100498.88;;;10.30;69.42
31483;BME280;18103;52.246;8.052;2023-04-07T11:00:40;100496.38;;;10.28;69.08
31483;BME280;18103;52.246;8.052;2023-04-07T11:03:12;100504.97;;;10.43;69.15
31483;BME280;18103;52.246;8.052;2023-04-07T11:05:41;100497.66;;;10.35;68.98
31483;BME280;18103;52.246;8.052;2023-04-07T11:08:09;100504.84;;;10.44;68.34
31483;BME280;18103;52.246;8.052;2023-04-07T11:10:35;100498.88;;;10.54;68.26
31483;BME280;18103;52.246;8.052;2023-04-07T11:13:06;100499.84;;;10.64;68.22
31483;BME280;18103;52.246;8.052;2023-04-07T11:15:35;100502.63;;;10.74;68.97
31483;BME280;18103;52.246;8.052;2023-04-07T11:18:18;100502.63;;;10.74;68.06
31483;BME280;18103;52.246;8.052;2023-04-07T11:23:17;100506.63;;;10.91;67.55
31483;BME280;18103;52.246;8.052;2023-04-07T11:25:45;100509.63;;;10.98;67.04
31483;BME280;18103;52.246;8.052;2023-04-07T11:28:11;100501.56;;;11.10;66.21
31483;BME280;18103;52.246;8.052;2023-04-07T11:30:38;100503.22;;;11.45;66.23
31483;BME280;18103;52.246;8.052;2023-04-07T11:33:03;100508.41;;;11.47;65.84
31483;BME280;18103;52.246;8.052;2023-04-07T11:35:31;100506.09;;;11.54;65.06
31483;BME280;18103;52.246;8.052;2023-04-07T11:38:01;100500.81;;;11.54;64.34
31483;BME280;18103;52.246;8.052;2023-04-07T11:40:34;100492.53;;;11.58;63.94
31483;BME280;18103;52.246;8.052;2023-04-07T11:43:04;100508.50;;;11.57;64.47
31483;BME280;18103;52.246;8.052;2023-04-07T11:45:41;100511.78;;;11.49;63.12
31483;BME280;18103;52.246;8.052;2023-04-07T11:48:30;100506.81;;;11.67;63.43
31483;BME280;18103;52.246;8.052;2023-04-07T11:50:58;100524.78;;;11.85;63.00
31483;BME280;18103;52.246;8.052;2023-04-07T11:53:31;100517.50;;;11.77;63.11
31483;BME280;18103;52.246;8.052;2023-04-07T11:56:08;100514.03;;;11.54;62.71
31483;BME280;18103;52.246;8.052;2023-04-07T11:58:37;100516.03;;;11.84;62.55
31483;BME280;18103;52.246;8.052;2023-04-07T12:01:05;100518.63;;;12.07;62.52
31483;BME280;18103;52.246;8.052;2023-04-07T12:03:34;100520.50;;;11.84;63.16
31483;BME280;18103;52.246;8.052;2023-04-07T12:06:01;100511.56;;;11.85;62.48
31483;BME280;18103;52.246;8.052;2023-04-07T12:08:40;100509.47;;;12.11;62.18
31483;BME280;18103;52.246;8.052;2023-04-07T12:11:06;100509.38;;;12.33;61.33
31483;BME280;18103;52.246;8.052;2023-04-07T12:13:34;100521.31;;;12.49;59.98
31483;BME280;18103;52.246;8.052;2023-04-07T12:16:01;100525.38;;;12.32;59.18
31483;BME280;18103;52.246;8.052;2023-04-07T12:18:27;100527.06;;;12.33;60.44
31483;BME280;18103;52.246;8.052;2023-04-07T12:20:55;100523.59;;;12.32;60.38
31483;BME280;18103;52.246;8.052;2023-04-07T12:23:22;100534.97;;;12.12;61.23
31483;BME280;18103;52.246;8.052;2023-04-07T12:25:48;100536.75;;;12.23;61.04
31483;BME280;18103;52.246;8.052;2023-04-07T12:28:13;100534.13;;;12.44;60.55
31483;BME280;18103;52.246;8.052;2023-04-07T12:30:39;100533.38;;;12.21;60.82
31483;BME280;18103;52.246;8.052;2023-04-07T12:33:05;100536.75;;;12.11;61.62
31483;BME280;18103;52.246;8.052;2023-04-07T12:35:36;100537.56;;;12.23;60.88
31483;BME280;18103;52.246;8.052;2023-04-07T12:38:02;100543.81;;;12.22;60.73
31483;BME280;18103;52.246;8.052;2023-04-07T12:40:31;100545.13;;;11.95;61.03
31483;BME280;18103;52.246;8.052;2023-04-07T12:42:58;100538.53;;;12.22;60.65
31483;BME280;18103;52.246;8.052;2023-04-07T12:45:24;100541.34;;;12.09;59.89
31483;BME280;18103;52.246;8.052;2023-04-07T12:47:49;100539.91;;;12.38;58.98
31483;BME280;18103;52.246;8.052;2023-04-07T12:50:17;100544.66;;;12.55;59.38
31483;BME280;18103;52.246;8.052;2023-04-07T12:52:42;100537.81;;;12.53;59.31
31483;BME280;18103;52.246;8.052;2023-04-07T12:55:08;100553.75;;;12.83;58.27
31483;BME280;18103;52.246;8.052;2023-04-07T12:57:33;100554.78;;;12.92;57.72
31483;BME280;18103;52.246;8.052;2023-04-07T13:00:02;100540.63;;;13.03;58.16
31483;BME280;18103;52.246;8.052;2023-04-07T13:02:27;100548.88;;;13.10;58.34
31483;BME280;18103;52.246;8.052;2023-04-07T13:04:53;100552.38;;;13.10;58.68
31483;BME280;18103;52.246;8.052;2023-04-07T13:07:18;100540.78;;;13.11;58.01
31483;BME280;18103;52.246;8.052;2023-04-07T13:09:44;100545.19;;;13.53;57.79
31483;BME280;18103;52.246;8.052;2023-04-07T13:12:11;100540.31;;;13.68;57.50
31483;BME280;18103;52.246;8.052;2023-04-07T13:14:41;100541.63;;;13.43;58.34
31483;BME280;18103;52.246;8.052;2023-04-07T13:17:07;100542.59;;;13.82;57.51
31483;BME280;18103;52.246;8.052;2023-04-07T13:19:35;100541.91;;;14.00;57.24
31483;BME280;18103;52.246;8.052;2023-04-07T13:22:03;100542.06;;;13.98;56.49